Time;durP1;ratioP1;P1;durP2;ratioP2;P2;SDS_P1;SDS_P2;PMS_P1;PMS_P2;Temp;Humidity;BMP_temperature;BMP_pressure;BME280_temperature;BME280_humidity;BME280_pressure;Samples;Min_cycle;Max_cycle;Signal;HPM_P1;HPM_P2
2023/01/31 00:00:14;;;;;;;18.15;9.60;;;;;;;1.06;52.85;94473.63;5065355;28;20043;-77
2023/01/31 00:02:43;;;;;;;19.83;10.45;;;;;;;1.11;52.48;94496.81;5064518;28;20043;-78
2023/01/31 00:05:08;;;;;;;19.77;9.75;;;;;;;0.98;52.90;94485.63;5065628;28;20033;-80
2023/01/31 00:07:34;;;;;;;18.27;8.98;;;;;;;0.78;53.64;94485.19;5064667;28;20116;-78
2023/01/31 00:09:59;;;;;;;18.70;8.65;;;;;;;0.82;54.04;94485.97;5064164;28;20029;-77
2023/01/31 00:12:24;;;;;;;15.15;8.85;;;;;;;0.76;54.25;94480.19;5064103;28;20123;-82
2023/01/31 00:14:50;;;;;;;18.23;9.80;;;;;;;0.73;54.33;94477.44;5063693;28;20094;-78
2023/01/31 00:17:15;;;;;;;18.17;9.32;;;;;;;0.67;54.51;94479.75;5063581;28;20024;-79
2023/01/31 00:19:40;;;;;;;17.40;9.75;;;;;;;0.61;54.69;94480.53;5066519;28;20036;-79
2023/01/31 00:22:06;;;;;;;19.23;9.77;;;;;;;0.65;54.83;94490.22;5064506;28;20035;-78
2023/01/31 00:24:31;;;;;;;18.05;9.65;;;;;;;0.62;54.94;94479.38;5062475;28;20043;-78
2023/01/31 00:26:57;;;;;;;15.80;8.43;;;;;;;0.56;55.10;94470.84;5074398;28;20070;-77
2023/01/31 00:29:23;;;;;;;16.25;9.57;;;;;;;0.43;55.38;94477.78;5074670;28;20100;-79
2023/01/31 00:31:49;;;;;;;18.92;9.48;;;;;;;0.38;55.80;94478.16;5061841;28;20036;-79
2023/01/31 00:34:14;;;;;;;19.63;9.10;;;;;;;0.32;56.13;94472.34;5064859;28;20032;-78
2023/01/31 00:36:40;;;;;;;15.52;8.85;;;;;;;0.28;56.46;94479.66;5062151;28;20044;-78
2023/01/31 00:39:06;;;;;;;17.35;9.35;;;;;;;0.21;56.73;94483.13;5046381;28;20024;-78
2023/01/31 00:41:32;;;;;;;17.92;9.30;;;;;;;0.21;56.74;94477.72;5064488;28;20039;-78
2023/01/31 00:43:59;;;;;;;18.60;9.40;;;;;;;0.21;56.89;94482.34;5044989;28;20036;-77
2023/01/31 00:46:25;;;;;;;17.83;9.18;;;;;;;0.20;56.86;94486.22;5046491;28;20055;-78
2023/01/31 00:48:50;;;;;;;17.73;9.65;;;;;;;0.25;56.75;94475.03;5062908;28;20480;-80
2023/01/31 00:51:16;;;;;;;17.70;9.23;;;;;;;0.21;56.92;94469.59;5062030;28;20032;-78
2023/01/31 00:53:42;;;;;;;24.80;12.20;;;;;;;0.37;56.70;94477.38;5062083;28;20491;-79
2023/01/31 00:56:12;;;;;;;18.30;9.55;;;;;;;0.42;56.41;94476.25;5062903;28;20024;-77
2023/01/31 00:58:38;;;;;;;20.33;9.18;;;;;;;0.46;56.68;94475.09;5074266;28;20032;-78
2023/01/31 01:01:10;;;;;;;16.67;9.18;;;;;;;0.49;56.42;94481.66;5045957;28;20487;-78
2023/01/31 01:03:37;;;;;;;16.63;8.77;;;;;;;0.46;56.43;94493.22;5064129;28;20085;-77
2023/01/31 01:06:03;;;;;;;17.52;8.70;;;;;;;0.36;56.50;94492.06;5061934;28;20028;-76
2023/01/31 01:08:29;;;;;;;18.42;8.48;;;;;;;0.39;56.47;94488.59;5062091;28;20540;-77
2023/01/31 01:10:55;;;;;;;18.65;9.15;;;;;;;0.43;56.28;94502.91;5061749;28;20033;-77
2023/01/31 01:13:20;;;;;;;23.20;9.27;;;;;;;0.48;56.06;94501.75;5064856;28;20033;-79
2023/01/31 01:15:45;;;;;;;23.65;10.57;;;;;;;0.51;55.89;94487.44;5061432;28;20027;-79
2023/01/31 01:18:11;;;;;;;23.13;11.43;;;;;;;0.56;55.72;94492.50;5060799;28;20682;-77
2023/01/31 01:20:36;;;;;;;24.77;9.77;;;;;;;0.57;55.74;94491.34;5064159;28;20036;-78
2023/01/31 01:23:02;;;;;;;16.73;8.98;;;;;;;0.57;55.83;94483.22;5063090;28;20479;-78
2023/01/31 01:25:27;;;;;;;18.88;8.57;;;;;;;0.60;55.48;94477.06;5070152;28;20033;-78
2023/01/31 01:27:53;;;;;;;20.35;10.40;;;;;;;0.68;55.35;94484.00;5062290;28;20029;-77
2023/01/31 01:30:20;;;;;;;20.73;10.07;;;;;;;0.72;55.44;94475.91;5064967;28;20033;-80
2023/01/31 01:32:45;;;;;;;19.80;9.20;;;;;;;0.74;55.63;94470.88;5064290;28;20029;-79
2023/01/31 01:35:11;;;;;;;21.60;10.77;;;;;;;0.84;55.20;94474.75;5061193;28;20044;-79
2023/01/31 01:37:36;;;;;;;19.77;9.63;;;;;;;0.93;54.82;94475.94;5062065;28;20452;-80
2023/01/31 01:40:02;;;;;;;17.80;8.70;;;;;;;0.98;54.36;94482.91;5061997;28;20086;-78
2023/01/31 01:42:33;;;;;;;20.15;9.48;;;;;;;0.99;54.18;94477.09;5062234;28;20059;-77
2023/01/31 01:45:00;;;;;;;18.15;9.60;;;;;;;1.06;54.26;94485.22;5053908;28;20039;-80
2023/01/31 01:47:34;;;;;;;20.77;10.60;;;;;;;1.12;53.94;94484.84;5069100;28;20024;-79
2023/01/31 01:50:12;;;;;;;20.70;9.70;;;;;;;1.19;53.32;94491.00;5061320;28;20111;-78
2023/01/31 01:52:45;;;;;;;17.77;10.07;;;;;;;1.19;52.80;94484.81;5060121;28;20032;-78
2023/01/31 01:55:39;;;;;;;18.65;9.20;;;;;;;1.23;51.30;94485.59;5062500;28;20035;-79
2023/01/31 01:58:13;;;;;;;18.00;8.50;;;;;;;1.18;50.86;94477.88;5056373;28;20067;-80
2023/01/31 02:00:38;;;;;;;15.45;7.93;;;;;;;1.10;50.74;94479.81;5063467;28;20041;-77
2023/01/31 02:03:05;;;;;;;14.60;8.68;;;;;;;1.12;50.49;94482.91;5063483;28;20035;-79
2023/01/31 02:05:41;;;;;;;16.10;8.00;;;;;;;1.07;50.21;94483.28;5066074;28;20040;-77
2023/01/31 02:08:07;;;;;;;18.00;8.23;;;;;;;1.05;50.57;94486.38;5066260;28;20040;-79
2023/01/31 02:10:36;;;;;;;18.75;7.78;;;;;;;1.09;50.34;94489.09;5065279;28;20483;-78
2023/01/31 02:13:03;;;;;;;15.77;8.57;;;;;;;1.12;50.29;94499.13;5067838;28;20025;-77
2023/01/31 02:15:28;;;;;;;16.08;8.48;;;;;;;1.10;50.23;94490.63;5064508;28;20108;-77
2023/01/31 02:17:54;;;;;;;12.65;6.93;;;;;;;1.10;50.33;94479.81;5066018;28;21343;-77
2023/01/31 02:20:32;;;;;;;15.52;7.63;;;;;;;1.13;50.01;94483.66;5049313;28;20036;-78
2023/01/31 02:23:21;;;;;;;12.07;6.78;;;;;;;1.15;50.03;94490.25;5071387;28;20020;-77
2023/01/31 02:26:08;;;;;;;16.23;7.85;;;;;;;1.15;49.97;94486.75;5062937;28;20392;-78
2023/01/31 02:29:05;;;;;;;14.85;7.63;;;;;;;1.12;49.76;94476.72;5067424;28;20041;-78
2023/01/31 02:31:36;;;;;;;14.00;6.75;;;;;;;1.12;49.81;94487.53;5047885;28;20530;-78
2023/01/31 02:34:22;;;;;;;10.55;6.18;;;;;;;1.08;49.64;94500.28;5078333;28;20037;-78
2023/01/31 02:37:12;;;;;;;14.30;7.40;;;;;;;1.02;49.87;94491.78;5062509;28;20040;-79
2023/01/31 02:39:50;;;;;;;13.63;6.25;;;;;;;1.03;49.93;94487.91;5064929;28;20032;-79
2023/01/31 02:42:46;;;;;;;12.27;5.65;;;;;;;1.06;50.07;94484.44;5047504;28;20678;-78
2023/01/31 02:45:36;;;;;;;12.30;6.80;;;;;;;1.13;49.98;94486.38;5030037;28;20036;-79
2023/01/31 02:48:09;;;;;;;12.65;7.18;;;;;;;1.09;50.20;94493.72;5047920;28;20051;-77
2023/01/31 02:50:48;;;;;;;13.60;6.17;;;;;;;1.14;49.88;94507.63;5047483;28;20068;-78
2023/01/31 02:53:20;;;;;;;12.32;6.63;;;;;;;1.14;50.10;94510.34;5030497;28;20090;-79
2023/01/31 02:56:19;;;;;;;12.95;7.78;;;;;;;1.10;50.21;94516.94;5064090;28;20041;-78
2023/01/31 02:58:54;;;;;;;13.43;7.03;;;;;;;1.04;50.60;94530.09;5032483;28;20029;-77
2023/01/31 03:01:27;;;;;;;13.98;6.75;;;;;;;0.96;50.83;94532.00;5047134;28;20617;-77
2023/01/31 03:03:56;;;;;;;11.98;6.68;;;;;;;0.96;51.04;94526.56;5046618;28;20402;-79
2023/01/31 03:06:30;;;;;;;17.60;7.63;;;;;;;1.01;51.03;94545.16;5063605;28;20453;-77
2023/01/31 03:08:58;;;;;;;;;;;;;;;1.08;51.44;94540.91;5064784;28;20057;-79
2023/01/31 03:11:45;;;;;;;14.43;7.32;;;;;;;0.94;51.86;94550.56;5066717;28;20546;-78
2023/01/31 03:14:31;;;;;;;13.52;7.45;;;;;;;0.93;52.28;94559.84;5048038;28;20032;-78
2023/01/31 03:19:48;;;;;;;14.80;7.35;;;;;;;1.05;52.33;94564.88;5068501;28;20055;-79
2023/01/31 03:22:17;;;;;;;15.93;7.72;;;;;;;1.07;52.21;94553.66;5066627;28;20025;-78
2023/01/31 03:24:44;;;;;;;14.45;6.72;;;;;;;1.13;52.23;94568.38;5063604;28;20047;-77
2023/01/31 03:27:10;;;;;;;13.40;7.07;;;;;;;1.14;51.98;94569.91;5071727;28;20036;-78
2023/01/31 03:29:37;;;;;;;16.20;9.18;;;;;;;1.12;52.06;94555.22;5057601;28;20028;-77
2023/01/31 03:32:16;;;;;;;18.10;9.23;;;;;;;1.16;52.43;94569.56;5062889;28;20115;-79
2023/01/31 03:34:42;;;;;;;25.48;10.77;;;;;;;1.19;52.68;94580.38;5065014;28;20024;-79
2023/01/31 03:37:25;;;;;;;16.20;8.30;;;;;;;1.26;52.79;94569.56;5047260;28;20025;-77
2023/01/31 03:39:51;;;;;;;16.30;8.15;;;;;;;1.27;52.67;94568.41;5064347;28;20021;-76
2023/01/31 03:42:23;;;;;;;13.27;7.07;;;;;;;1.38;52.61;94581.16;5064752;28;20040;-77
2023/01/31 03:45:08;;;;;;;15.48;7.32;;;;;;;1.20;53.53;94592.75;5047233;28;20561;-77
2023/01/31 03:47:37;;;;;;;12.35;6.90;;;;;;;0.97;54.74;94590.38;5063906;28;20029;-78
2023/01/31 03:50:10;;;;;;;15.45;7.95;;;;;;;0.79;55.79;94590.34;5064395;28;20032;-79
2023/01/31 03:52:41;;;;;;;16.88;8.13;;;;;;;0.73;56.24;94588.38;5048766;28;20479;-78
2023/01/31 03:55:20;;;;;;;14.48;7.32;;;;;;;0.78;56.19;94607.72;5062439;28;20028;-79
2023/01/31 03:57:49;;;;;;;14.90;7.32;;;;;;;0.79;56.29;94603.88;5063559;28;20456;-76
2023/01/31 04:00:18;;;;;;;14.35;7.50;;;;;;;0.88;56.22;94603.50;5065399;28;20102;-78
2023/01/31 04:02:48;;;;;;;14.50;7.38;;;;;;;1.00;55.76;94589.63;5062289;28;20016;-78
2023/01/31 04:05:17;;;;;;;14.73;7.15;;;;;;;1.03;55.80;94596.19;5035114;28;20041;-80
2023/01/31 04:07:43;;;;;;;16.58;7.93;;;;;;;0.96;55.90;94594.25;5063835;28;20028;-79
2023/01/31 04:10:13;;;;;;;17.35;7.75;;;;;;;0.94;56.66;94595.81;5062836;28;20052;-79
2023/01/31 04:12:38;;;;;;;15.77;8.10;;;;;;;0.81;56.73;94610.84;5063646;28;20024;-78
2023/01/31 04:15:04;;;;;;;13.30;7.40;;;;;;;0.68;57.32;94597.66;5059511;28;20039;-78
2023/01/31 04:17:30;;;;;;;15.07;8.32;;;;;;;0.63;57.92;94605.34;5063217;28;20044;-79
2023/01/31 04:19:55;;;;;;;17.40;7.65;;;;;;;0.51;58.57;94609.16;5064651;28;20035;-78
2023/01/31 04:22:21;;;;;;;15.95;7.63;;;;;;;0.44;58.90;94607.22;5065037;28;20631;-77
2023/01/31 04:24:46;;;;;;;14.85;7.05;;;;;;;0.30;59.65;94606.38;5064379;28;20135;-75
2023/01/31 04:27:11;;;;;;;13.88;7.25;;;;;;;0.23;59.96;94607.09;5063675;28;20033;-78
2023/01/31 04:29:37;;;;;;;17.13;7.63;;;;;;;0.18;60.57;94613.66;5062292;28;20663;-77
2023/01/31 04:32:02;;;;;;;15.18;8.52;;;;;;;0.21;60.56;94622.94;5064018;28;20025;-78
2023/01/31 04:34:28;;;;;;;16.73;8.40;;;;;;;0.14;60.82;94609.38;5063031;28;20058;-79
2023/01/31 04:36:53;;;;;;;18.17;8.90;;;;;;;0.06;61.35;94619.38;5064188;28;20093;-78
2023/01/31 04:39:18;;;;;;;18.67;8.77;;;;;;;0.04;61.59;94610.09;5064620;28;20036;-77
2023/01/31 04:41:44;;;;;;;16.67;8.90;;;;;;;0.05;61.80;94625.16;5061622;28;20131;-78
2023/01/31 04:44:10;;;;;;;17.48;8.75;;;;;;;-0.01;62.03;94627.44;5062448;28;20032;-78
2023/01/31 04:46:36;;;;;;;19.15;11.07;;;;;;;-0.01;62.17;94611.22;5063853;28;20028;-77
2023/01/31 04:49:01;;;;;;;18.33;8.82;;;;;;;-0.03;62.51;94627.03;5064135;28;20029;-79
2023/01/31 04:51:27;;;;;;;17.67;9.88;;;;;;;-0.09;62.88;94631.25;5060951;28;20039;-78
2023/01/31 04:53:52;;;;;;;17.17;8.93;;;;;;;-0.13;63.48;94628.50;5064024;28;20021;-79
2023/01/31 04:56:18;;;;;;;21.42;10.35;;;;;;;-0.15;63.68;94630.06;5064264;28;20033;-78
2023/01/31 04:58:43;;;;;;;20.13;10.05;;;;;;;-0.16;63.67;94628.50;5062518;28;20016;-77
2023/01/31 05:01:08;;;;;;;20.33;9.80;;;;;;;-0.12;63.86;94623.88;5062689;28;20029;-78
2023/01/31 05:03:34;;;;;;;21.20;10.27;;;;;;;-0.16;64.01;94633.91;5063227;28;20032;-78
2023/01/31 05:05:59;;;;;;;20.85;10.38;;;;;;;-0.15;63.76;94625.41;5064184;28;20055;-78
2023/01/31 05:08:25;;;;;;;18.88;11.02;;;;;;;-0.05;63.70;94629.34;5060807;28;20029;-78
2023/01/31 05:10:59;;;;;;;16.63;8.93;;;;;;;0.02;63.27;94629.41;5067515;28;20024;-77
2023/01/31 05:13:25;;;;;;;16.55;9.55;;;;;;;0.00;62.98;94639.81;5066827;28;20032;-77
2023/01/31 05:15:50;;;;;;;14.77;8.55;;;;;;;0.06;63.02;94651.81;5061670;28;20025;-78
2023/01/31 05:18:15;;;;;;;15.35;8.60;;;;;;;0.09;62.65;94648.34;5064099;28;20045;-78
2023/01/31 05:20:42;;;;;;;15.60;9.02;;;;;;;0.21;62.64;94658.09;5064200;28;20146;-78
2023/01/31 05:23:08;;;;;;;18.42;9.85;;;;;;;0.21;62.54;94637.22;5078766;28;20054;-78
2023/01/31 05:25:35;;;;;;;16.40;9.23;;;;;;;0.30;62.32;94645.00;5084514;28;20064;-81
2023/01/31 05:28:00;;;;;;;17.38;9.93;;;;;;;0.33;62.35;94648.88;5074461;28;20064;-79
2023/01/31 05:30:26;;;;;;;16.08;8.40;;;;;;;0.29;62.47;94650.78;5062160;28;20553;-79
2023/01/31 05:32:51;;;;;;;15.48;8.90;;;;;;;0.32;62.50;94653.50;5071967;28;20039;-77
2023/01/31 05:35:17;;;;;;;17.20;8.57;;;;;;;0.26;62.65;94638.81;5060185;28;20024;-77
2023/01/31 05:37:43;;;;;;;13.60;8.02;;;;;;;0.29;62.89;94638.06;5064521;28;20020;-79
2023/01/31 05:40:10;;;;;;;15.10;8.35;;;;;;;0.32;62.59;94645.41;5067764;28;20056;-78
2023/01/31 05:42:36;;;;;;;16.67;8.73;;;;;;;0.42;62.38;94649.31;5081707;28;20115;-78
2023/01/31 05:45:01;;;;;;;17.05;8.90;;;;;;;0.44;62.18;94655.13;5073847;28;20131;-76
2023/01/31 05:47:26;;;;;;;14.65;8.13;;;;;;;0.48;61.89;94662.09;5066118;28;20020;-76
2023/01/31 05:49:52;;;;;;;15.90;9.13;;;;;;;0.55;61.57;94664.06;5067464;28;20429;-77
2023/01/31 05:52:17;;;;;;;16.40;9.48;;;;;;;0.60;61.36;94662.94;5065230;28;20033;-77
2023/01/31 05:54:43;;;;;;;13.02;7.90;;;;;;;0.60;61.54;94662.94;5067326;28;20020;-77
2023/01/31 05:57:08;;;;;;;15.80;8.13;;;;;;;0.55;61.56;94671.41;5073024;28;20074;-78
2023/01/31 05:59:34;;;;;;;14.23;9.15;;;;;;;0.60;61.64;94666.41;5088090;28;20538;-77
2023/01/31 06:01:59;;;;;;;16.00;9.40;;;;;;;0.58;61.88;94657.13;5056027;28;20032;-78
2023/01/31 06:04:24;;;;;;;15.60;8.68;;;;;;;0.53;62.17;94666.38;5064830;28;20036;-79
2023/01/31 06:06:50;;;;;;;16.08;9.50;;;;;;;0.51;62.25;94669.44;5067038;28;20036;-78
2023/01/31 06:09:15;;;;;;;14.18;8.13;;;;;;;0.51;62.39;94665.97;5073553;28;20032;-79
2023/01/31 06:11:41;;;;;;;14.60;8.48;;;;;;;0.52;62.43;94673.72;5067855;28;20032;-78
2023/01/31 06:14:07;;;;;;;13.50;7.60;;;;;;;0.59;62.24;94672.97;5067481;28;20051;-80
2023/01/31 06:16:33;;;;;;;14.60;7.88;;;;;;;0.64;62.38;94675.34;5065027;28;20395;-80
2023/01/31 06:18:58;;;;;;;17.20;8.82;;;;;;;0.72;62.18;94662.59;5064922;28;20044;-83
2023/01/31 06:21:24;;;;;;;16.42;8.82;;;;;;;0.68;62.14;94673.41;5065227;28;20051;-77
2023/01/31 06:23:49;;;;;;;15.35;8.15;;;;;;;0.71;62.22;94680.78;5067634;28;20043;-78
2023/01/31 06:26:14;;;;;;;17.25;8.93;;;;;;;0.76;62.33;94688.53;5064453;28;20036;-78
2023/01/31 06:28:40;;;;;;;15.10;8.07;;;;;;;0.77;62.34;94686.59;5067475;28;20036;-78
2023/01/31 06:31:07;;;;;;;14.85;8.07;;;;;;;0.82;62.49;94686.22;5064563;28;20052;-78
2023/01/31 06:33:32;;;;;;;15.90;8.80;;;;;;;0.80;62.28;94672.28;5065175;28;20031;-78
2023/01/31 06:35:59;;;;;;;16.45;9.05;;;;;;;0.81;62.48;94678.50;5057982;28;20032;-77
2023/01/31 06:38:25;;;;;;;18.23;9.48;;;;;;;0.81;62.21;94681.97;5062113;28;20033;-79
2023/01/31 06:40:51;;;;;;;17.55;8.75;;;;;;;0.81;62.24;94678.50;5066822;28;20596;-77
2023/01/31 06:43:16;;;;;;;18.80;8.70;;;;;;;0.87;61.96;94675.03;5064625;28;20143;-79
2023/01/31 06:45:43;;;;;;;16.08;8.75;;;;;;;0.85;62.17;94677.34;5062611;28;20031;-78
2023/01/31 06:48:09;;;;;;;16.60;8.88;;;;;;;0.91;62.04;94686.66;5061819;28;20032;-78
2023/01/31 06:50:35;;;;;;;14.75;8.32;;;;;;;0.88;62.16;94675.81;5043223;28;20039;-78
2023/01/31 06:53:00;;;;;;;13.80;8.52;;;;;;;0.92;62.19;94676.59;5049040;28;20086;-80
2023/01/31 06:55:25;;;;;;;17.63;8.90;;;;;;;0.97;61.89;94682.41;5065800;28;20094;-77
2023/01/31 06:57:51;;;;;;;15.02;8.75;;;;;;;1.04;61.41;94677.03;5067106;28;20161;-77
2023/01/31 07:00:20;;;;;;;18.83;9.05;;;;;;;1.09;61.54;94688.63;5047422;28;20052;-80
2023/01/31 07:02:46;;;;;;;13.77;8.02;;;;;;;1.13;61.13;94689.44;5066593;28;20101;-79
2023/01/31 07:05:11;;;;;;;14.20;8.15;;;;;;;1.20;60.80;94682.09;5049497;28;20033;-78
2023/01/31 07:07:36;;;;;;;14.98;8.75;;;;;;;1.18;60.64;94695.25;5063218;28;20046;-78
2023/01/31 07:10:02;;;;;;;18.90;9.00;;;;;;;1.27;60.60;94694.91;5063428;28;20035;-77
2023/01/31 07:12:28;;;;;;;14.60;7.55;;;;;;;1.36;60.24;94692.59;5064673;28;20322;-85
2023/01/31 07:14:53;;;;;;;13.10;8.27;;;;;;;1.45;60.06;94700.38;5064797;28;20036;-77
2023/01/31 07:17:21;;;;;;;15.35;8.55;;;;;;;1.44;60.43;94691.47;5062625;28;20104;-78
2023/01/31 07:19:47;;;;;;;14.95;7.72;;;;;;;1.52;60.10;94698.44;5064121;28;20202;-77
2023/01/31 07:22:12;;;;;;;14.35;8.18;;;;;;;1.50;60.13;94683.75;5066182;28;20208;-79
2023/01/31 07:24:37;;;;;;;12.27;7.32;;;;;;;1.54;60.36;94704.25;5065730;28;20193;-78
2023/01/31 07:27:03;;;;;;;14.82;7.07;;;;;;;1.54;60.35;94698.81;5066020;28;20036;-78
2023/01/31 07:29:28;;;;;;;12.00;7.63;;;;;;;1.50;60.89;94702.72;5066506;28;20043;-78
2023/01/31 07:31:54;;;;;;;15.45;8.57;;;;;;;1.45;61.07;94698.44;5048721;28;20024;-78
2023/01/31 07:34:21;;;;;;;14.63;7.95;;;;;;;1.41;61.45;94686.81;5064343;28;20032;-78
2023/01/31 07:36:48;;;;;;;14.82;8.02;;;;;;;1.31;61.63;94698.38;5067200;28;20021;-78
2023/01/31 07:39:13;;;;;;;13.90;8.00;;;;;;;1.30;61.72;94699.53;5063893;28;20028;-78
2023/01/31 07:41:39;;;;;;;17.33;9.32;;;;;;;1.35;61.75;94701.13;5066632;28;20036;-77
2023/01/31 07:44:07;;;;;;;13.07;7.97;;;;;;;1.40;61.68;94711.56;5065495;28;20025;-78
2023/01/31 07:46:33;;;;;;;14.45;7.57;;;;;;;1.42;61.46;94712.72;5066353;28;20025;-78
2023/01/31 07:48:59;;;;;;;14.50;7.97;;;;;;;1.40;61.68;94711.56;5065612;28;20063;-77
2023/01/31 07:51:24;;;;;;;14.10;8.07;;;;;;;1.43;61.72;94708.09;5063736;28;20418;-76
2023/01/31 07:53:49;;;;;;;13.57;8.48;;;;;;;1.42;61.83;94707.31;5067129;28;20075;-78
2023/01/31 07:56:17;;;;;;;12.13;8.02;;;;;;;1.47;61.78;94700.75;5064817;28;20116;-77
2023/01/31 07:58:43;;;;;;;16.60;7.93;;;;;;;1.53;61.79;94716.25;5065799;28;20517;-79
2023/01/31 08:03:57;;;;;;;11.18;7.45;;;;;;;1.57;61.60;94725.16;5067345;28;20035;-80
2023/01/31 08:06:23;;;;;;;14.05;8.30;;;;;;;1.64;61.85;94707.38;5065166;28;20029;-78
2023/01/31 08:08:48;;;;;;;14.63;8.77;;;;;;;1.76;61.65;94715.13;5065681;28;20056;-77
2023/01/31 08:11:15;;;;;;;12.65;8.27;;;;;;;1.89;61.28;94710.88;5066732;28;20066;-80
2023/01/31 08:13:40;;;;;;;14.40;7.93;;;;;;;1.97;60.85;94706.25;5063753;28;20078;-79
2023/01/31 08:16:08;;;;;;;15.55;8.13;;;;;;;2.10;60.64;94719.03;5064801;28;20111;-78
2023/01/31 08:18:34;;;;;;;13.25;8.40;;;;;;;2.36;59.95;94722.50;5064625;28;20044;-78
2023/01/31 08:20:59;;;;;;;10.90;7.32;;;;;;;2.54;59.11;94720.53;5066263;28;20039;-78
2023/01/31 08:23:26;;;;;;;12.82;8.93;;;;;;;2.62;58.83;94710.44;5065300;28;20115;-78
2023/01/31 08:25:52;;;;;;;11.38;7.15;;;;;;;2.97;58.01;94697.94;5065297;28;20111;-78
2023/01/31 08:28:17;;;;;;;13.38;7.68;;;;;;;3.53;56.42;94702.34;5066167;28;20124;-77
2023/01/31 08:30:43;;;;;;;10.68;6.65;;;;;;;3.79;55.21;94703.75;5063312;28;20048;-79
2023/01/31 08:33:10;;;;;;;11.73;8.20;;;;;;;3.90;54.76;94698.22;5064751;28;20086;-77
2023/01/31 08:35:35;;;;;;;12.45;7.90;;;;;;;3.95;54.61;94701.28;5063111;28;20062;-78
2023/01/31 08:38:01;;;;;;;11.07;8.20;;;;;;;4.00;53.92;94706.31;5065921;28;20032;-79
2023/01/31 08:40:26;;;;;;;13.57;9.02;;;;;;;3.99;53.86;94695.84;5063018;28;20142;-80
2023/01/31 08:42:56;;;;;;;10.85;7.28;;;;;;;3.87;54.45;94697.09;5064291;28;20122;-78
2023/01/31 08:45:22;;;;;;;11.95;7.55;;;;;;;4.10;53.75;94695.75;5047408;28;20086;-80
2023/01/31 08:47:47;;;;;;;13.45;7.75;;;;;;;4.44;53.15;94702.06;5063167;28;20411;-79
2023/01/31 08:50:13;;;;;;;11.48;6.85;;;;;;;4.85;51.79;94703.22;5064472;28;20162;-80
2023/01/31 08:52:38;;;;;;;9.90;6.57;;;;;;;5.42;50.37;94713.47;5046189;28;20090;-79
2023/01/31 08:55:05;;;;;;;10.48;6.43;;;;;;;5.51;50.30;94692.72;5064663;28;20025;-78
2023/01/31 08:57:30;;;;;;;10.68;6.60;;;;;;;7.14;46.17;94712.34;5070506;28;20028;-78
2023/01/31 08:59:56;;;;;;;12.30;6.15;;;;;;;9.78;40.51;94716.97;5067255;28;20103;-77
2023/01/31 09:02:21;;;;;;;10.73;6.13;;;;;;;11.86;36.04;94712.47;5065333;28;20024;-78
2023/01/31 09:04:48;;;;;;;7.70;5.25;;;;;;;11.38;35.86;94714.59;5046878;28;20040;-79
2023/01/31 09:07:13;;;;;;;10.85;6.15;;;;;;;11.20;36.35;94717.19;5064412;28;20021;-78
2023/01/31 09:09:39;;;;;;;8.50;5.85;;;;;;;9.64;39.16;94718.16;5063055;28;20026;-78
2023/01/31 09:12:04;;;;;;;9.55;6.10;;;;;;;9.01;40.16;94713.25;5065197;28;20047;-78
2023/01/31 09:14:30;;;;;;;9.15;5.68;;;;;;;10.80;37.40;94708.75;5064231;28;20521;-78
2023/01/31 09:16:56;;;;;;;7.85;5.53;;;;;;;11.43;35.58;94705.75;5064194;28;20116;-81
2023/01/31 09:19:22;;;;;;;10.30;5.88;;;;;;;12.42;33.96;94706.00;5063039;28;20081;-79
2023/01/31 09:21:48;;;;;;;8.77;5.65;;;;;;;13.84;31.42;94694.94;5065189;28;20056;-78
2023/01/31 09:24:14;;;;;;;6.43;5.20;;;;;;;13.54;31.22;94698.22;5065232;28;20021;-79
2023/01/31 09:26:39;;;;;;;8.27;5.55;;;;;;;15.24;29.80;94701.66;5064437;28;20040;-78
2023/01/31 09:29:05;;;;;;;6.50;4.80;;;;;;;16.72;27.27;94707.31;5065614;28;20024;-78
2023/01/31 09:31:30;;;;;;;6.85;4.50;;;;;;;16.61;26.67;94694.00;5063801;28;20431;-79
2023/01/31 09:33:56;;;;;;;7.28;5.03;;;;;;;16.14;27.37;94693.03;5065558;28;20084;-80
2023/01/31 09:36:23;;;;;;;8.40;4.50;;;;;;;16.44;27.09;94690.97;5062585;28;20033;-79
2023/01/31 09:38:53;;;;;;;8.35;4.63;;;;;;;16.92;26.27;94687.94;5047238;28;20055;-79
2023/01/31 09:41:18;;;;;;;8.05;4.65;;;;;;;18.32;24.54;94680.34;5064742;28;20020;-79
2023/01/31 09:44:07;;;;;;;5.57;4.00;;;;;;;17.05;25.38;94681.28;5063949;28;20039;-78
2023/01/31 09:46:36;;;;;;;5.88;4.07;;;;;;;15.84;26.92;94680.41;5064253;28;20519;-79
2023/01/31 09:49:04;;;;;;;6.22;4.38;;;;;;;17.87;24.65;94668.81;5062717;28;20035;-79
2023/01/31 09:51:32;;;;;;;7.88;4.88;;;;;;;19.25;22.97;94669.56;5063638;28;20079;-78
2023/01/31 09:53:59;;;;;;;8.48;4.82;;;;;;;20.97;21.83;94669.50;5071184;28;20035;-79
2023/01/31 09:56:31;;;;;;;8.80;4.50;;;;;;;21.72;20.33;94678.66;5065385;28;20025;-78
2023/01/31 09:59:24;;;;;;;7.03;4.82;;;;;;;20.20;21.24;94674.63;5064185;28;20087;-81
2023/01/31 10:02:22;;;;;;;4.85;3.80;;;;;;;18.29;23.42;94668.19;5062222;28;20036;-80
2023/01/31 10:05:02;;;;;;;4.97;3.97;;;;;;;18.38;23.14;94647.00;5063312;28;20063;-78
2023/01/31 10:07:34;;;;;;;4.43;3.70;;;;;;;19.74;21.79;94659.09;5064745;28;20039;-77
2023/01/31 10:10:05;;;;;;;6.63;3.90;;;;;;;19.65;21.55;94662.09;5045804;28;20036;-77
2023/01/31 10:12:44;;;;;;;5.68;4.10;;;;;;;19.32;22.37;94655.13;5063676;28;20032;-79
2023/01/31 10:15:43;;;;;;;4.68;3.85;;;;;;;19.24;22.26;94658.91;5062431;28;20028;-77
2023/01/31 10:18:16;;;;;;;7.55;3.72;;;;;;;18.80;22.56;94651.84;5063706;28;20048;-79
2023/01/31 10:20:47;;;;;;;5.53;3.92;;;;;;;20.50;20.85;94646.25;5063931;28;20365;-77
2023/01/31 10:23:21;;;;;;;8.13;3.83;;;;;;;20.31;20.54;94649.53;5061977;28;20502;-78
2023/01/31 10:25:58;;;;;;;6.70;4.18;;;;;;;19.36;21.81;94643.75;5069238;28;20028;-78
2023/01/31 10:28:37;;;;;;;5.32;3.85;;;;;;;18.61;22.31;94642.34;5070935;28;20190;-78
2023/01/31 10:31:05;;;;;;;4.13;3.28;;;;;;;20.02;21.50;94653.56;5069836;28;20024;-78
2023/01/31 10:33:48;;;;;;;5.97;3.75;;;;;;;17.62;23.91;94641.78;5068466;28;20020;-79
2023/01/31 10:36:23;;;;;;;7.50;3.95;;;;;;;15.27;27.12;94619.66;5049198;28;20029;-78
2023/01/31 10:39:03;;;;;;;4.63;3.28;;;;;;;14.18;28.43;94636.50;5050182;28;20423;-77
2023/01/31 10:41:53;;;;;;;3.60;3.05;;;;;;;16.41;25.74;94639.25;5065454;28;20020;-78
2023/01/31 10:44:39;;;;;;;4.03;2.97;;;;;;;17.82;24.34;94629.84;5066743;28;20024;-77
2023/01/31 10:47:11;;;;;;;5.25;3.53;;;;;;;16.79;25.18;94631.97;5067120;28;20020;-77
2023/01/31 10:49:37;;;;;;;5.60;3.22;;;;;;;17.41;24.40;94635.47;5071556;28;20114;-77
2023/01/31 10:52:47;;;;;;;4.75;3.13;;;;;;;18.39;23.09;94634.59;5069000;28;20512;-78
2023/01/31 10:55:47;;;;;;;4.05;3.10;;;;;;;16.97;24.70;94634.50;5049253;28;20182;-78
2023/01/31 10:58:15;;;;;;;6.22;3.65;;;;;;;14.76;27.92;94631.75;5066822;28;20129;-79
2023/01/31 11:00:41;;;;;;;7.90;4.28;;;;;;;13.36;30.36;94634.75;5049707;28;20024;-77
2023/01/31 11:03:08;;;;;;;9.50;5.40;;;;;;;12.28;32.87;94643.19;5065730;28;20407;-78
2023/01/31 11:05:36;;;;;;;5.68;3.67;;;;;;;11.67;33.01;94641.97;5065581;28;20093;-78
2023/01/31 11:08:22;;;;;;;5.95;3.63;;;;;;;10.20;35.30;94642.72;5066363;28;20112;-79
2023/01/31 11:10:53;;;;;;;4.78;3.13;;;;;;;9.24;37.31;94635.44;5064893;28;20044;-77
2023/01/31 11:13:19;;;;;;;4.07;2.90;;;;;;;9.04;38.16;94633.63;5065985;28;20024;-77
2023/01/31 11:15:47;;;;;;;3.88;3.13;;;;;;;8.12;40.52;94639.50;5066719;28;20032;-78
2023/01/31 11:18:25;;;;;;;4.53;3.60;;;;;;;7.96;41.18;94637.50;5065667;28;20093;-77
2023/01/31 11:20:51;;;;;;;6.00;3.92;;;;;;;7.44;42.63;94648.44;5067804;28;20406;-77
2023/01/31 11:23:22;;;;;;;7.03;4.40;;;;;;;6.92;43.72;94643.66;5064770;28;20031;-77
2023/01/31 11:25:49;;;;;;;7.38;4.20;;;;;;;6.48;45.16;94634.72;5066217;28;20020;-77
2023/01/31 11:28:21;;;;;;;6.53;4.35;;;;;;;6.20;45.81;94644.19;5064590;28;20501;-75
2023/01/31 11:30:48;;;;;;;5.40;3.90;;;;;;;5.81;46.65;94644.75;5065927;28;20089;-77
2023/01/31 11:33:44;;;;;;;8.50;4.82;;;;;;;5.39;48.13;94651.56;5064933;28;20020;-77
2023/01/31 11:36:15;;;;;;;6.57;4.65;;;;;;;4.97;49.34;94656.41;5063938;28;20079;-78
2023/01/31 11:38:40;;;;;;;9.85;4.82;;;;;;;4.75;50.13;94647.69;5065667;28;20036;-77
2023/01/31 11:41:25;;;;;;;5.97;4.20;;;;;;;4.59;51.30;94655.63;5064165;28;20020;-78
2023/01/31 11:44:05;;;;;;;5.18;3.58;;;;;;;4.13;52.11;94645.97;5068640;28;20279;-78
2023/01/31 11:46:44;;;;;;;4.95;4.03;;;;;;;3.87;53.31;94655.53;5068572;28;20024;-78
2023/01/31 11:49:19;;;;;;;6.15;4.05;;;;;;;3.59;54.66;94659.97;5064630;28;20031;-78